Angus, Minnesota
Current Conditions -  °F | °C
As of 2:14 PM on Wednesday 26 Nov 2014 (Local Time) from KCKN Reporting Station
Clear Clear  
Wind Chill: -18°   Ceiling: Unl
Heat Index:   Visibility: 10mi
Dew Point: -4°   Wind: 16mph
Humidity: 78%   Direction: 350°N
Pressure: 30.45"   Gusts: NA
Location:  48.08°N, 96.7°W
Report Text: KCKN 262014Z AUTO 35014KT 10SM CLR M17/M20 A3045 RMK AO2
Loading
Personal Weather Stations






























Interactive Weather Map New forecast layout! Learn more

10-Day Weather Forecast

Advertisements
Track Severe Weather on mobile